Time;durP1;ratioP1;P1;durP2;ratioP2;P2;SDS_P1;SDS_P2;PMS_P1;PMS_P2;Temp;Humidity;BMP_temperature;BMP_pressure;BME280_temperature;BME280_humidity;BME280_pressure;Samples;Min_cycle;Max_cycle;Signal;HPM_P1;HPM_P2
2021/07/29 00:01:02;;;;;;;11.03;8.38;;;;;;;19.47;68.59;100638.02;1692113;83;21761;-83
2021/07/29 00:03:29;;;;;;;9.33;7.83;;;;;;;19.42;68.70;100634.92;1692003;84;21031;-83
2021/07/29 00:05:56;;;;;;;11.35;7.90;;;;;;;19.40;68.83;100626.06;1692102;84;21063;-83
2021/07/29 00:08:22;;;;;;;10.05;7.95;;;;;;;19.35;68.87;100630.60;1692154;84;21003;-83
2021/07/29 00:10:49;;;;;;;9.30;7.35;;;;;;;19.32;68.92;100625.75;1692233;84;21078;-83
2021/07/29 00:13:16;;;;;;;8.90;7.80;;;;;;;19.28;68.94;100626.23;1692149;82;22583;-83
2021/07/29 00:15:43;;;;;;;9.98;7.45;;;;;;;19.24;69.01;100624.52;1692279;83;21129;-83
2021/07/29 00:20:41;;;;;;;10.70;8.38;;;;;;;19.15;69.17;100625.50;1699734;84;21513;-83
2021/07/29 00:23:08;;;;;;;8.30;7.40;;;;;;;19.11;69.28;100623.78;1686731;84;21150;-83
2021/07/29 00:25:34;;;;;;;10.40;7.97;;;;;;;19.07;69.41;100622.06;1687356;85;21773;-83
2021/07/29 00:28:01;;;;;;;9.13;7.58;;;;;;;19.04;69.54;100622.96;1687246;85;21011;-83
2021/07/29 00:30:28;;;;;;;9.63;8.45;;;;;;;19.02;69.67;100623.89;1687169;85;21031;-83
2021/07/29 00:32:55;;;;;;;9.40;7.58;;;;;;;19.00;69.80;100625.23;1687208;85;21188;-83
2021/07/29 00:35:22;;;;;;;9.35;8.03;;;;;;;18.97;69.91;100627.05;1716998;83;21988;-83
2021/07/29 00:37:52;;;;;;;9.73;8.20;;;;;;;18.93;69.99;100626.66;1712285;83;21687;-83
2021/07/29 00:40:22;;;;;;;13.08;8.40;;;;;;;18.89;70.19;100623.14;1706515;83;21014;-85
2021/07/29 00:42:49;;;;;;;9.13;7.65;;;;;;;18.85;70.29;100614.75;1689730;84;20983;-84
2021/07/29 00:45:15;;;;;;;11.00;8.03;;;;;;;18.80;70.35;100613.87;1687185;85;21545;-85
2021/07/29 00:47:43;;;;;;;9.23;7.95;;;;;;;18.77;70.45;100607.23;1687293;85;21164;-85
2021/07/29 00:50:11;;;;;;;10.28;7.83;;;;;;;18.75;70.59;100606.37;1687259;85;21770;-86
2021/07/29 00:52:38;;;;;;;9.90;8.90;;;;;;;18.70;70.72;100603.77;1686817;83;21032;-85
2021/07/29 00:55:07;;;;;;;13.70;8.60;;;;;;;18.66;70.84;100604.70;1687209;85;21118;-86
2021/07/29 00:57:34;;;;;;;9.68;7.97;;;;;;;18.62;71.00;100609.19;1687138;85;21102;-86
2021/07/29 01:00:01;;;;;;;12.78;8.35;;;;;;;18.58;71.12;100610.13;1683418;85;21029;-86
2021/07/29 01:02:28;;;;;;;13.85;8.03;;;;;;;18.53;71.26;100603.95;1674209;85;21769;-85
2021/07/29 01:04:55;;;;;;;9.00;8.10;;;;;;;18.50;71.44;100600.42;1748649;81;20986;-85
2021/07/29 01:07:22;;;;;;;9.55;8.55;;;;;;;18.45;71.48;100600.03;1754066;81;21503;-86
2021/07/29 01:09:49;;;;;;;9.33;7.85;;;;;;;18.40;71.58;100599.18;1754428;80;21464;-86
2021/07/29 01:12:15;;;;;;;11.10;8.75;;;;;;;18.36;71.71;100600.11;1754323;81;21551;-85
2021/07/29 01:14:42;;;;;;;13.20;8.45;;;;;;;18.30;71.75;100600.18;1754247;81;21999;-85
2021/07/29 01:17:09;;;;;;;10.25;8.70;;;;;;;18.25;71.87;100608.20;1697496;83;21539;-85
2021/07/29 01:19:36;;;;;;;10.15;8.68;;;;;;;18.21;71.97;100604.25;1709520;83;21513;-86
2021/07/29 01:22:03;;;;;;;10.20;8.35;;;;;;;18.15;72.12;100599.86;1707330;83;21043;-86
2021/07/29 01:24:30;;;;;;;10.30;8.58;;;;;;;18.10;72.19;100589.69;1709031;84;21353;-85
2021/07/29 01:26:56;;;;;;;10.45;8.48;;;;;;;18.06;72.33;100595.48;1709151;83;22544;-85
2021/07/29 01:29:23;;;;;;;9.35;7.97;;;;;;;18.01;72.29;100591.97;1700692;83;21587;-85
2021/07/29 01:31:50;;;;;;;11.68;8.40;;;;;;;17.95;72.37;100589.36;1709235;83;21034;-86
2021/07/29 01:34:17;;;;;;;9.43;7.70;;;;;;;17.93;72.48;100591.62;1735487;82;21003;-86
2021/07/29 01:36:44;;;;;;;11.48;7.83;;;;;;;17.89;72.54;100590.75;1735397;82;21118;-85
2021/07/29 01:39:11;;;;;;;9.38;8.40;;;;;;;17.84;72.58;100587.20;1735386;82;21773;-85
2021/07/29 01:41:37;;;;;;;9.80;8.80;;;;;;;17.80;72.67;100584.12;1735343;82;20992;-86
2021/07/29 01:44:04;;;;;;;10.23;7.95;;;;;;;17.76;72.71;100583.72;1735095;82;21023;-86
2021/07/29 01:46:31;;;;;;;11.22;8.73;;;;;;;17.74;72.72;100584.19;1735442;82;21114;-85
2021/07/29 01:48:58;;;;;;;13.62;8.30;;;;;;;17.71;72.75;100584.20;1735975;82;20979;-86
2021/07/29 01:51:24;;;;;;;9.63;8.20;;;;;;;17.68;72.85;100587.73;1735630;82;21768;-86
2021/07/29 01:53:52;;;;;;;12.13;8.05;;;;;;;17.65;72.85;100586.45;1721788;81;40581;-86
2021/07/29 01:56:20;;;;;;;19.52;8.28;;;;;;;17.63;72.87;100583.79;1752213;81;21007;-85
2021/07/29 01:58:47;;;;;;;11.97;8.45;;;;;;;17.60;72.90;100581.14;1749263;80;21046;-83
2021/07/29 02:01:23;;;;;;;10.35;8.48;;;;;;;17.58;72.88;100582.05;1749292;82;21010;-83
2021/07/29 02:03:50;;;;;;;10.28;8.25;;;;;;;17.55;72.93;100582.97;1749206;82;21316;-83
2021/07/29 02:06:16;;;;;;;10.60;8.10;;;;;;;17.55;72.90;100583.39;1749103;82;21485;-83
2021/07/29 02:08:43;;;;;;;13.68;8.90;;;;;;;17.50;72.90;100587.43;1748942;82;21089;-84
2021/07/29 02:11:10;;;;;;;10.30;7.92;;;;;;;17.47;72.98;100584.35;1749144;80;21011;-86
2021/07/29 02:13:37;;;;;;;8.78;7.47;;;;;;;17.45;72.95;100584.78;1749472;82;21022;-85
2021/07/29 02:16:10;;;;;;;12.80;8.28;;;;;;;17.44;73.00;100589.68;1749176;82;22554;-87
2021/07/29 02:18:36;;;;;;;9.08;7.70;;;;;;;17.41;73.05;100588.81;1739927;82;21003;-86
2021/07/29 02:21:10;;;;;;;13.48;7.50;;;;;;;17.41;73.08;100590.14;1735384;82;21034;-86
2021/07/29 02:23:37;;;;;;;10.32;7.00;;;;;;;17.39;73.03;100587.94;1735534;82;21051;-85
2021/07/29 02:26:04;;;;;;;10.70;7.58;;;;;;;17.37;73.03;100584.41;1735485;82;21065;-86
2021/07/29 02:28:30;;;;;;;8.58;7.65;;;;;;;17.35;73.02;100584.86;1735449;82;21761;-86
2021/07/29 02:30:57;;;;;;;11.40;7.12;;;;;;;17.33;73.03;100583.53;1735083;82;20992;-86
2021/07/29 02:33:24;;;;;;;8.65;6.47;;;;;;;17.31;73.02;100594.64;1736365;81;21529;-85
2021/07/29 02:35:51;;;;;;;10.78;7.65;;;;;;;17.28;73.06;100588.86;1735369;82;21036;-86
2021/07/29 02:38:17;;;;;;;10.20;7.42;;;;;;;17.28;73.08;100588.86;1735443;82;21113;-86
2021/07/29 02:40:44;;;;;;;8.25;7.00;;;;;;;17.27;73.05;100596.42;1735661;82;22436;-86
2021/07/29 02:43:11;;;;;;;8.40;6.70;;;;;;;17.25;73.04;100593.34;1735261;82;21259;-86
2021/07/29 02:45:38;;;;;;;7.35;6.65;;;;;;;17.23;73.11;100593.34;1735455;82;21063;-86
2021/07/29 02:48:04;;;;;;;7.42;6.72;;;;;;;17.24;73.10;100595.55;1735778;82;21008;-86
2021/07/29 02:50:34;;;;;;;7.75;6.40;;;;;;;17.22;73.13;100597.34;1735623;82;21010;-85
2021/07/29 02:53:01;;;;;;;8.68;7.55;;;;;;;17.23;73.15;100600.00;1735527;82;21764;-86
2021/07/29 02:55:28;;;;;;;7.37;6.62;;;;;;;17.23;73.11;100597.76;1735445;82;21594;-86
2021/07/29 02:57:54;;;;;;;9.95;7.05;;;;;;;17.23;73.13;100603.98;1735579;82;21026;-86
2021/07/29 03:00:21;;;;;;;9.28;7.55;;;;;;;17.24;73.12;100598.21;1735513;82;21130;-86
2021/07/29 03:02:48;;;;;;;7.72;6.92;;;;;;;17.25;73.11;100604.86;1735192;82;20987;-86
2021/07/29 03:05:14;;;;;;;10.55;7.85;;;;;;;17.28;73.07;100601.29;1735356;82;21754;-86
2021/07/29 03:07:41;;;;;;;8.98;7.33;;;;;;;17.29;73.08;100595.09;1735434;82;21043;-86
2021/07/29 03:10:09;;;;;;;8.05;6.58;;;;;;;17.33;73.02;100597.30;1735412;82;21058;-86
2021/07/29 03:12:35;;;;;;;9.58;7.12;;;;;;;17.35;73.05;100589.73;1735298;82;21556;-86
2021/07/29 03:15:02;;;;;;;8.50;6.80;;;;;;;17.40;72.96;100593.68;1735453;82;21066;-86
2021/07/29 03:17:29;;;;;;;9.48;7.28;;;;;;;17.44;72.99;100591.47;1735277;82;21825;-85
2021/07/29 03:19:55;;;;;;;10.85;6.70;;;;;;;17.51;72.91;100594.50;1735283;82;20992;-86
2021/07/29 03:22:22;;;;;;;8.65;6.62;;;;;;;17.55;72.83;100593.62;1735296;82;21070;-86
2021/07/29 03:24:49;;;;;;;9.10;6.62;;;;;;;17.61;72.78;100593.56;1735231;82;20980;-86
2021/07/29 03:27:15;;;;;;;9.40;6.65;;;;;;;17.69;72.81;100594.84;1735399;82;21062;-86
2021/07/29 03:29:42;;;;;;;10.98;6.33;;;;;;;17.77;72.72;100593.00;1735398;82;21777;-86
2021/07/29 03:32:09;;;;;;;9.45;6.40;;;;;;;17.85;72.67;100589.02;1735127;82;21051;-86
2021/07/29 03:34:36;;;;;;;11.03;6.40;;;;;;;17.98;72.63;100589.35;1735471;82;21140;-86
2021/07/29 03:37:03;;;;;;;10.28;6.58;;;;;;;18.13;72.62;100587.44;1735402;82;20996;-86
2021/07/29 03:39:30;;;;;;;8.05;6.78;;;;;;;18.35;72.60;100586.34;1735354;82;21003;-86
2021/07/29 03:41:56;;;;;;;11.90;6.60;;;;;;;18.68;72.55;100579.37;1735378;82;21772;-86
2021/07/29 03:44:23;;;;;;;11.30;6.22;;;;;;;19.14;72.60;100582.37;1735406;82;21042;-86
2021/07/29 03:46:50;;;;;;;7.05;5.78;;;;;;;19.79;72.72;100580.16;1735364;82;21047;-86
2021/07/29 03:49:16;;;;;;;9.43;6.03;;;;;;;21.01;72.74;100573.98;1735349;82;21567;-86
2021/07/29 03:51:43;;;;;;;9.65;6.40;;;;;;;22.44;71.66;100582.22;1735624;82;21031;-87
2021/07/29 03:54:10;;;;;;;8.83;5.53;;;;;;;23.87;70.02;100579.84;1735418;82;21752;-83
2021/07/29 03:56:36;;;;;;;7.45;5.62;;;;;;;25.19;67.93;100577.00;1735521;82;21055;-84
2021/07/29 03:59:03;;;;;;;6.42;4.65;;;;;;;27.44;63.76;100579.58;1735242;82;21004;-83
2021/07/29 04:01:30;;;;;;;6.92;4.45;;;;;;;27.44;63.76;100579.58;1735440;82;21023;-83
2021/07/29 04:03:56;;;;;;;5.05;4.58;;;;;;;28.44;61.95;100583.61;1735385;82;21059;-85
2021/07/29 04:06:23;;;;;;;5.30;4.58;;;;;;;29.41;60.45;100579.80;1735390;82;22566;-84
2021/07/29 04:08:50;;;;;;;6.12;4.37;;;;;;;30.31;58.12;100577.33;1735069;82;21026;-84
2021/07/29 04:11:16;;;;;;;4.87;4.37;;;;;;;31.12;56.64;100576.89;1734813;82;21054;-85
2021/07/29 04:13:43;;;;;;;4.53;4.12;;;;;;;31.85;54.76;100584.84;1734457;82;20964;-84
2021/07/29 04:16:11;;;;;;;7.60;5.22;;;;;;;32.63;53.38;100585.48;1734902;82;21054;-85
2021/07/29 04:18:38;;;;;;;7.70;4.35;;;;;;;33.27;51.58;100587.34;1735214;82;21795;-88
2021/07/29 04:21:05;;;;;;;6.50;4.47;;;;;;;33.85;50.34;100583.03;1749426;81;21031;-88
2021/07/29 04:23:31;;;;;;;4.85;4.35;;;;;;;34.49;48.83;100579.09;1765549;81;21042;-88
2021/07/29 04:25:58;;;;;;;4.83;4.35;;;;;;;34.96;47.32;100581.81;1765460;81;21461;-88
2021/07/29 04:28:25;;;;;;;7.33;4.83;;;;;;;35.39;46.36;100587.93;1765697;81;21485;-88
2021/07/29 04:30:51;;;;;;;5.65;4.30;;;;;;;35.86;45.16;100591.34;1765630;81;21743;-87
2021/07/29 04:33:19;;;;;;;7.20;4.33;;;;;;;36.41;43.94;100583.54;1765304;80;20992;-88
2021/07/29 04:35:46;;;;;;;8.25;4.40;;;;;;;36.91;43.07;100578.27;1765666;81;21145;-89
2021/07/29 04:38:12;;;;;;;9.40;4.47;;;;;;;37.43;42.11;100585.95;1765764;81;20991;-85
2021/07/29 04:40:39;;;;;;;6.50;4.03;;;;;;;37.84;40.82;100579.03;1765123;80;21019;-85
2021/07/29 04:43:06;;;;;;;5.85;4.08;;;;;;;38.32;40.06;100576.83;1765492;81;22434;-85
2021/07/29 04:45:33;;;;;;;12.05;4.47;;;;;;;38.74;38.88;100583.36;1765739;81;21486;-87
2021/07/29 04:48:00;;;;;;;7.83;4.42;;;;;;;39.06;38.07;100585.77;1765796;81;21004;-87
2021/07/29 04:50:27;;;;;;;9.40;4.08;;;;;;;39.46;37.42;100588.72;1765786;81;21099;-88
2021/07/29 04:52:54;;;;;;;7.50;4.65;;;;;;;39.96;36.73;100587.38;1765873;81;21071;-87
2021/07/29 04:55:21;;;;;;;7.12;4.40;;;;;;;40.46;35.69;100585.97;1765752;81;21837;-85
2021/07/29 04:57:47;;;;;;;12.30;4.20;;;;;;;40.72;34.81;100592.88;1765721;80;21571;-84
2021/07/29 05:00:14;;;;;;;4.35;3.80;;;;;;;41.05;34.32;100593.62;1765682;81;21035;-84
2021/07/29 05:02:41;;;;;;;4.15;3.58;;;;;;;41.50;33.69;100594.73;1765792;81;21469;-84
2021/07/29 05:05:09;;;;;;;9.88;4.00;;;;;;;41.94;33.09;100592.27;1766044;80;21102;-86
2021/07/29 05:07:35;;;;;;;8.48;4.17;;;;;;;42.35;32.09;100585.42;1765913;81;22644;-85
2021/07/29 05:10:02;;;;;;;7.25;3.52;;;;;;;42.60;31.25;100588.19;1765950;80;21560;-85
2021/07/29 05:12:29;;;;;;;8.50;3.72;;;;;;;42.85;30.56;100586.23;1765857;80;21078;-85
2021/07/29 05:14:57;;;;;;;11.50;4.17;;;;;;;43.03;30.00;100575.83;1765715;80;21000;-86
2021/07/29 05:17:24;;;;;;;5.03;4.12;;;;;;;43.23;29.66;100578.16;1764699;80;21098;-85
2021/07/29 05:19:50;;;;;;;9.05;3.95;;;;;;;43.58;29.11;100573.19;1766041;81;22940;-84
2021/07/29 05:22:17;;;;;;;5.72;3.58;;;;;;;43.83;28.57;100567.86;1765800;81;21015;-85
2021/07/29 05:24:44;;;;;;;4.72;4.03;;;;;;;44.24;27.78;100573.13;1765822;81;21000;-84
2021/07/29 05:27:10;;;;;;;7.67;3.17;;;;;;;44.43;27.46;100570.84;1765895;81;21027;-84
2021/07/29 05:29:37;;;;;;;4.80;3.27;;;;;;;44.59;26.68;100576.28;1765844;81;21664;-84
2021/07/29 05:32:05;;;;;;;5.75;3.47;;;;;;;44.78;26.62;100569.84;1768183;80;21748;-84
2021/07/29 05:34:32;;;;;;;6.28;3.35;;;;;;;45.05;26.12;100564.70;1758596;80;21062;-83
2021/07/29 05:37:00;;;;;;;11.60;3.58;;;;;;;45.13;25.52;100566.00;1765260;81;21015;-83
2021/07/29 05:39:27;;;;;;;12.78;4.45;;;;;;;45.06;25.14;100565.05;1770470;80;21059;-83
2021/07/29 05:41:53;;;;;;;11.33;4.37;;;;;;;44.98;24.84;100565.47;1779803;80;21027;-83
2021/07/29 05:44:20;;;;;;;14.85;4.40;;;;;;;44.49;24.47;100558.13;1775832;80;21822;-84
2021/07/29 05:46:46;;;;;;;9.95;3.87;;;;;;;42.60;24.40;100552.22;1775752;80;21573;-84
2021/07/29 05:49:13;;;;;;;4.72;3.55;;;;;;;40.28;24.99;100552.86;1766232;80;21059;-83
2021/07/29 05:51:40;;;;;;;5.78;3.47;;;;;;;38.06;25.80;100548.52;1765756;80;21005;-84
2021/07/29 05:54:06;;;;;;;7.37;3.98;;;;;;;36.14;26.97;100554.25;1765548;81;21501;-83
2021/07/29 05:56:33;;;;;;;7.22;3.65;;;;;;;34.65;28.17;100545.94;1765753;81;21814;-84
2021/07/29 05:59:00;;;;;;;6.17;3.52;;;;;;;33.31;29.06;100546.57;1765765;80;21015;-85
2021/07/29 06:01:26;;;;;;;5.37;3.67;;;;;;;32.19;30.34;100549.05;1760612;80;21092;-85
2021/07/29 06:03:53;;;;;;;6.75;3.92;;;;;;;31.25;31.43;100546.58;1767618;80;21507;-86
2021/07/29 06:06:20;;;;;;;9.83;3.95;;;;;;;30.48;32.55;100550.53;1770221;79;21020;-85
2021/07/29 06:08:53;;;;;;;12.50;4.65;;;;;;;29.83;33.38;100550.31;1772156;80;21761;-84
2021/07/29 06:11:18;;;;;;;7.30;4.40;;;;;;;29.22;34.12;100556.88;1780123;79;21048;-88
2021/07/29 06:13:45;;;;;;;17.67;5.40;;;;;;;28.74;35.18;100557.25;1780081;80;21032;-85
2021/07/29 06:16:12;;;;;;;6.37;4.15;;;;;;;28.38;35.93;100563.64;1780073;80;21005;-85
2021/07/29 06:18:47;;;;;;;10.55;4.83;;;;;;;28.07;36.72;100561.63;1780074;78;21012;-85
2021/07/29 06:21:07;;;;;;;15.48;4.33;;;;;;;27.81;37.31;100564.27;1782143;79;21779;-86
2021/07/29 06:23:33;;;;;;;10.53;4.33;;;;;;;27.53;37.44;100565.62;1779255;80;21044;-85
2021/07/29 06:26:00;;;;;;;13.60;3.60;;;;;;;27.24;37.68;100557.06;1773680;79;21045;-85
2021/07/29 06:28:31;;;;;;;14.90;5.30;;;;;;;26.98;37.90;100561.47;1780475;79;21160;-85
2021/07/29 06:30:55;;;;;;;8.18;4.15;;;;;;;26.78;38.60;100552.44;1760980;80;20985;-85
2021/07/29 06:33:21;;;;;;;14.43;5.08;;;;;;;26.62;39.12;100552.75;1771754;79;22550;-85
2021/07/29 06:35:48;;;;;;;11.18;4.17;;;;;;;26.44;39.50;100559.80;1781499;79;21098;-85
2021/07/29 06:38:15;;;;;;;13.65;4.72;;;;;;;26.29;39.85;100558.16;1771255;81;21024;-85
2021/07/29 06:40:42;;;;;;;6.85;5.03;;;;;;;26.14;40.18;100562.40;1771133;81;21033;-86
2021/07/29 06:43:09;;;;;;;12.45;4.85;;;;;;;26.02;40.68;100561.59;1771287;79;21095;-86
2021/07/29 06:45:35;;;;;;;20.25;5.83;;;;;;;25.93;40.99;100565.54;1771107;79;21226;-85
2021/07/29 06:48:02;;;;;;;8.50;4.20;;;;;;;25.88;41.33;100570.20;1771348;81;21076;-84
2021/07/29 06:50:29;;;;;;;7.10;4.55;;;;;;;25.82;41.52;100567.77;1771227;81;20996;-85
2021/07/29 06:52:55;;;;;;;16.50;5.42;;;;;;;25.75;41.64;100563.13;1770991;81;21526;-84
2021/07/29 06:55:22;;;;;;;12.30;6.08;;;;;;;25.67;41.83;100563.02;1770513;81;21032;-85
2021/07/29 06:57:49;;;;;;;10.75;5.20;;;;;;;25.60;42.00;100564.62;1770585;79;21834;-85
2021/07/29 07:00:16;;;;;;;13.68;4.97;;;;;;;25.53;42.17;100560.89;1770445;80;21537;-85
2021/07/29 07:02:43;;;;;;;8.38;4.92;;;;;;;25.47;42.35;100563.81;1770625;81;21561;-86
2021/07/29 07:05:10;;;;;;;7.50;4.20;;;;;;;25.41;42.46;100565.83;1772429;79;21115;-85
2021/07/29 07:07:37;;;;;;;14.25;5.92;;;;;;;25.32;42.60;100571.58;1770924;81;21120;-85
2021/07/29 07:10:04;;;;;;;5.35;4.53;;;;;;;25.24;42.82;100569.63;1771382;79;21805;-84
2021/07/29 07:12:31;;;;;;;8.58;4.60;;;;;;;25.19;43.04;100569.80;1771256;81;21076;-84
2021/07/29 07:14:58;;;;;;;4.37;3.85;;;;;;;25.17;43.26;100569.42;1771444;79;21005;-84
2021/07/29 07:17:24;;;;;;;6.90;4.37;;;;;;;25.16;43.40;100569.03;1771476;81;21606;-85
2021/07/29 07:19:56;;;;;;;8.50;6.05;;;;;;;25.18;43.73;100559.08;1771538;81;21076;-85
2021/07/29 07:22:20;;;;;;;9.65;4.05;;;;;;;25.20;43.80;100556.72;1773783;80;21857;-85
2021/07/29 07:24:46;;;;;;;11.48;4.35;;;;;;;25.16;43.70;100550.17;1771468;81;20998;-85
2021/07/29 07:27:13;;;;;;;10.70;4.95;;;;;;;25.16;43.72;100552.87;1771504;81;21048;-85
2021/07/29 07:29:40;;;;;;;12.95;4.28;;;;;;;25.14;43.95;100548.88;1771416;80;21665;-85
2021/07/29 07:32:07;;;;;;;6.00;3.62;;;;;;;25.17;44.26;100554.61;1771444;81;21072;-85
2021/07/29 07:34:33;;;;;;;9.85;4.08;;;;;;;25.15;44.20;100549.31;1771452;81;21750;-85
2021/07/29 07:37:00;;;;;;;12.95;4.37;;;;;;;25.18;44.10;100550.52;1771310;81;21044;-85
2021/07/29 07:39:27;;;;;;;15.55;4.40;;;;;;;25.21;44.21;100560.31;1749511;80;21052;-85
2021/07/29 07:41:57;;;;;;;8.40;4.62;;;;;;;25.22;44.30;100549.93;1770874;81;21036;-85
2021/07/29 07:44:23;;;;;;;27.17;5.78;;;;;;;25.22;44.35;100547.23;1771443;81;21032;-85
2021/07/29 07:46:50;;;;;;;8.25;3.98;;;;;;;25.26;44.51;100550.25;1771665;81;21747;-85
2021/07/29 07:49:17;;;;;;;12.18;3.92;;;;;;;25.30;44.83;100551.91;1771563;81;21060;-85
2021/07/29 07:51:43;;;;;;;4.65;3.85;;;;;;;25.36;44.74;100550.79;1771741;81;20993;-84
2021/07/29 07:54:11;;;;;;;7.35;3.72;;;;;;;25.37;44.80;100541.75;1771647;81;21037;-84
2021/07/29 07:56:43;;;;;;;5.08;3.25;;;;;;;25.41;44.87;100545.63;1771451;81;21508;-85
2021/07/29 07:59:10;;;;;;;4.92;3.50;;;;;;;25.44;44.92;100543.27;1771486;80;21782;-85
2021/07/29 08:01:40;;;;;;;6.92;3.33;;;;;;;25.46;44.91;100544.55;1771455;81;21052;-85
2021/07/29 08:04:07;;;;;;;4.47;3.02;;;;;;;25.46;44.84;100541.38;1771496;81;20981;-85
2021/07/29 08:06:34;;;;;;;5.65;3.47;;;;;;;25.42;44.86;100549.19;1771456;79;21095;-85
2021/07/29 08:09:02;;;;;;;5.78;2.98;;;;;;;25.41;44.92;100537.55;1768171;81;21458;-85
2021/07/29 08:11:29;;;;;;;5.97;3.25;;;;;;;25.43;45.03;100532.06;1771399;79;22629;-85
2021/07/29 08:13:56;;;;;;;7.70;3.80;;;;;;;25.45;44.86;100528.83;1771627;81;20993;-85
2021/07/29 08:16:22;;;;;;;4.90;3.85;;;;;;;25.46;44.90;100531.95;1771476;81;21004;-85
2021/07/29 08:18:50;;;;;;;7.28;3.47;;;;;;;25.48;44.98;100527.38;1771460;81;21049;-86
2021/07/29 08:21:16;;;;;;;7.28;3.20;;;;;;;25.53;45.07;100523.16;1771482;81;21072;-85
2021/07/29 08:23:44;;;;;;;3.72;3.02;;;;;;;25.57;45.19;100526.13;1771436;80;21702;-85
2021/07/29 08:26:11;;;;;;;4.67;2.92;;;;;;;25.65;45.07;100523.98;1771366;81;21134;-85
2021/07/29 08:28:40;;;;;;;3.52;3.22;;;;;;;25.70;44.88;100526.03;1771344;81;21021;-85
2021/07/29 08:31:10;;;;;;;3.58;3.12;;;;;;;25.81;44.90;100533.68;1771322;81;21001;-85
2021/07/29 08:33:37;;;;;;;3.22;2.98;;;;;;;25.95;44.69;100519.16;1771676;81;21076;-85
2021/07/29 08:36:05;;;;;;;8.23;3.30;;;;;;;26.14;44.65;100527.33;1771546;81;21798;-85
2021/07/29 08:38:32;;;;;;;4.22;3.20;;;;;;;26.29;44.33;100524.44;1771403;81;21464;-85
2021/07/29 08:40:59;;;;;;;3.98;3.35;;;;;;;26.38;44.03;100524.52;1771432;81;20946;-85
2021/07/29 08:43:28;;;;;;;4.37;3.98;;;;;;;26.57;44.04;100517.33;1771522;81;21573;-85
2021/07/29 08:45:54;;;;;;;6.05;2.92;;;;;;;26.76;43.79;100518.75;1771214;80;21529;-85
2021/07/29 08:48:26;;;;;;;5.78;3.20;;;;;;;26.92;43.39;100518.92;1771608;81;21813;-85
2021/07/29 08:50:56;;;;;;;4.67;2.58;;;;;;;27.06;43.31;100520.97;1771589;79;21005;-85
2021/07/29 08:53:22;;;;;;;3.65;2.40;;;;;;;27.22;42.85;100518.42;1771664;81;20997;-86
2021/07/29 08:55:50;;;;;;;3.08;2.42;;;;;;;27.34;42.76;100523.25;1771679;81;21238;-86
2021/07/29 08:58:17;;;;;;;6.60;2.55;;;;;;;27.51;42.64;100532.37;1771648;81;21100;-86
2021/07/29 09:01:12;;;;;;;2.95;2.50;;;;;;;27.68;42.27;100523.43;1771886;81;21914;-85
2021/07/29 09:03:36;;;;;;;5.75;2.70;;;;;;;27.98;42.23;100525.58;1757531;80;21057;-86
2021/07/29 09:06:12;;;;;;;5.70;3.55;;;;;;;28.38;41.77;100520.78;1771892;81;21025;-85
2021/07/29 09:08:47;;;;;;;4.15;2.98;;;;;;;28.59;41.17;100520.17;1771864;81;21140;-86
2021/07/29 09:11:38;;;;;;;3.27;2.65;;;;;;;28.76;40.67;100524.19;1771913;81;21602;-86
2021/07/29 09:14:19;;;;;;;7.55;3.00;;;;;;;28.81;40.47;100530.69;1766877;81;21994;-85
2021/07/29 09:19:44;;;;;;;10.20;3.00;;;;;;;28.59;39.89;100534.58;1759128;79;21060;-85
2021/07/29 09:22:18;;;;;;;5.97;2.92;;;;;;;28.30;39.81;100533.37;1771769;81;21044;-84
2021/07/29 09:25:10;;;;;;;12.37;3.58;;;;;;;28.06;39.75;100541.83;1771731;81;21083;-84
2021/07/29 09:27:47;;;;;;;5.28;3.05;;;;;;;27.88;39.80;100535.96;1771296;81;21992;-85
2021/07/29 09:30:25;;;;;;;8.33;3.33;;;;;;;27.78;40.15;100532.85;1771377;81;21037;-85
2021/07/29 09:33:03;;;;;;;8.40;3.12;;;;;;;27.69;40.04;100533.31;1771621;81;21060;-85
2021/07/29 09:38:13;;;;;;;4.87;2.92;;;;;;;27.39;40.22;100533.86;1768665;80;21124;-85
2021/07/29 09:40:45;;;;;;;5.50;2.77;;;;;;;27.28;40.30;100541.61;1771284;79;21792;-85
2021/07/29 09:43:17;;;;;;;3.12;2.77;;;;;;;27.18;40.40;100531.69;1771382;81;21020;-86
2021/07/29 09:45:48;;;;;;;3.65;2.83;;;;;;;27.13;40.63;100524.27;1771706;81;21029;-86
2021/07/29 09:48:17;;;;;;;5.45;3.22;;;;;;;27.08;40.68;100528.52;1771317;81;21583;-85
2021/07/29 09:50:43;;;;;;;3.30;2.95;;;;;;;27.13;40.69;100524.27;1772841;80;20997;-85
2021/07/29 09:53:12;;;;;;;4.97;3.02;;;;;;;27.15;40.47;100527.77;1771535;81;21778;-85
2021/07/29 09:55:38;;;;;;;6.33;3.15;;;;;;;27.24;40.30;100527.81;1773288;80;21290;-85
2021/07/29 09:58:05;;;;;;;5.05;3.12;;;;;;;27.32;40.31;100527.86;1770899;81;21052;-85
2021/07/29 10:00:35;;;;;;;6.15;3.12;;;;;;;27.50;40.45;100529.30;1771557;81;20998;-84
2021/07/29 10:03:06;;;;;;;12.25;2.98;;;;;;;27.68;39.71;100528.84;1771646;81;20949;-85
2021/07/29 10:05:52;;;;;;;14.47;3.45;;;;;;;27.78;39.50;100526.55;1771111;80;21774;-85
2021/07/29 10:08:30;;;;;;;7.70;3.02;;;;;;;27.91;39.26;100519.13;1771226;80;21005;-85
2021/07/29 10:10:58;;;;;;;5.83;2.95;;;;;;;28.06;38.90;100524.69;1769618;80;21009;-85
2021/07/29 10:16:08;;;;;;;5.33;2.80;;;;;;;28.46;38.54;100513.15;1769829;80;21029;-85
2021/07/29 10:19:01;;;;;;;5.17;2.90;;;;;;;28.52;38.17;100528.19;1771421;81;21733;-85
2021/07/29 10:21:30;;;;;;;4.20;3.02;;;;;;;28.47;37.90;100532.03;1773931;80;21029;-84
2021/07/29 10:24:14;;;;;;;;;;;;;;;;;;;;;
2021/07/29 10:26:32;;;;;;;5.08;3.62;;;;;;;28.31;37.33;100521.60;1767207;81;21452;-84
2021/07/29 10:29:25;;;;;;;3.70;2.83;;;;;;;28.22;37.25;100526.14;1771608;81;21503;-84
2021/07/29 10:31:59;;;;;;;8.03;3.20;;;;;;;28.15;37.15;100528.77;1765449;80;21800;-84
2021/07/29 10:34:28;;;;;;;4.00;3.05;;;;;;;28.05;37.39;100527.02;1771671;81;20993;-84
2021/07/29 10:36:59;;;;;;;6.03;3.62;;;;;;;28.10;37.60;100517.70;1771919;80;21060;-84
2021/07/29 10:39:26;;;;;;;9.00;3.42;;;;;;;28.17;37.66;100518.25;1770640;80;21001;-84
2021/07/29 10:41:57;;;;;;;8.50;2.90;;;;;;;28.24;37.84;100514.75;1771391;81;21645;-84
2021/07/29 10:44:38;;;;;;;4.72;2.98;;;;;;;28.21;37.65;100503.62;1775348;80;22674;-84
2021/07/29 10:47:07;;;;;;;6.42;3.77;;;;;;;28.21;37.86;100508.14;1771440;80;21033;-84
2021/07/29 10:50:00;;;;;;;3.10;2.83;;;;;;;28.30;37.89;100514.42;1771324;81;21055;-84
2021/07/29 10:52:29;;;;;;;8.88;4.55;;;;;;;28.30;37.55;100513.97;1776931;80;20998;-84
2021/07/29 10:54:56;;;;;;;5.42;3.87;;;;;;;28.21;37.45;100510.84;1773671;80;21049;-85
2021/07/29 10:57:23;;;;;;;3.33;2.95;;;;;;;28.16;37.59;100511.10;1771393;81;22535;-84
2021/07/29 10:59:53;;;;;;;9.75;3.60;;;;;;;28.07;37.58;100519.20;1771489;81;20982;-84
2021/07/29 11:02:44;;;;;;;7.92;4.03;;;;;;;27.99;37.70;100516.52;1771226;81;21013;-84
2021/07/29 11:05:09;;;;;;;8.73;4.45;;;;;;;27.95;37.78;100514.90;1771271;80;21087;-84
2021/07/29 11:07:42;;;;;;;8.23;3.75;;;;;;;27.97;37.94;100529.22;1771475;81;21346;-85
2021/07/29 11:10:11;;;;;;;4.08;2.98;;;;;;;28.07;37.80;100524.63;1771467;81;21806;-83
2021/07/29 11:12:40;;;;;;;7.70;3.00;;;;;;;28.29;37.71;100520.33;1771332;79;20997;-83
2021/07/29 11:15:09;;;;;;;3.67;2.90;;;;;;;28.57;37.13;100512.13;1771474;80;21002;-84
2021/07/29 11:17:36;;;;;;;6.70;3.30;;;;;;;28.86;36.98;100515.07;1771522;81;21250;-84
2021/07/29 11:20:05;;;;;;;8.38;3.45;;;;;;;29.01;36.47;100508.80;1771532;81;20933;-84
2021/07/29 11:22:44;;;;;;;5.20;3.37;;;;;;;29.12;36.18;100513.62;1771542;81;21742;-84
2021/07/29 11:25:11;;;;;;;11.48;3.52;;;;;;;29.16;35.95;100514.36;1771282;81;21033;-84
2021/07/29 11:27:38;;;;;;;7.17;4.60;;;;;;;29.14;35.53;100510.86;1771391;81;21087;-84
2021/07/29 11:30:06;;;;;;;4.05;3.65;;;;;;;29.16;35.28;100506.22;1771496;81;21102;-84
2021/07/29 11:32:41;;;;;;;7.50;2.90;;;;;;;29.20;35.30;100506.44;1771682;81;21554;-85
2021/07/29 11:35:12;;;;;;;7.35;2.70;;;;;;;29.31;35.36;100499.92;1771113;80;21774;-84
2021/07/29 11:37:41;;;;;;;7.85;3.10;;;;;;;29.43;35.28;100494.27;1770514;80;21088;-84
2021/07/29 11:40:20;;;;;;;3.25;2.75;;;;;;;29.49;34.77;100501.17;1771167;81;21152;-84